sensor_id;sensor_type;location;lat;lon;timestamp;pressure;altitude;pressure_sealevel;temperature;humidity
70011;BME280;59543;37.950;-122.338;2023-04-26T00:01:02;101083.34;;;20.38;48.47
70011;BME280;59543;37.950;-122.338;2023-04-26T00:03:31;101082.94;;;20.47;48.79
70011;BME280;59543;37.950;-122.338;2023-04-26T00:05:58;101088.31;;;20.21;49.58
70011;BME280;59543;37.950;-122.338;2023-04-26T00:08:30;101089.34;;;20.13;49.98
70011;BME280;59543;37.950;-122.338;2023-04-26T00:10:56;101088.16;;;20.36;50.56
70011;BME280;59543;37.950;-122.338;2023-04-26T00:13:22;101095.22;;;20.10;50.34
70011;BME280;59543;37.950;-122.338;2023-04-26T00:15:48;101097.25;;;19.95;50.38
70011;BME280;59543;37.950;-122.338;2023-04-26T00:18:15;101089.03;;;19.60;51.36
70011;BME280;59543;37.950;-122.338;2023-04-26T00:20:42;101094.38;;;19.68;51.11
70011;BME280;59543;37.950;-122.338;2023-04-26T00:23:08;101091.06;;;19.51;51.10
70011;BME280;59543;37.950;-122.338;2023-04-26T00:25:35;101093.53;;;19.46;51.90
70011;BME280;59543;37.950;-122.338;2023-04-26T00:28:02;101094.38;;;19.18;52.08
70011;BME280;59543;37.950;-122.338;2023-04-26T00:30:28;101097.69;;;19.35;52.34
70011;BME280;59543;37.950;-122.338;2023-04-26T00:32:55;101101.16;;;19.23;52.50
70011;BME280;59543;37.950;-122.338;2023-04-26T00:35:21;101101.00;;;19.09;52.57
70011;BME280;59543;37.950;-122.338;2023-04-26T00:37:47;101108.22;;;19.17;53.42
70011;BME280;59543;37.950;-122.338;2023-04-26T00:40:13;101107.53;;;19.08;53.35
70011;BME280;59543;37.950;-122.338;2023-04-26T00:42:41;101111.09;;;18.51;53.32
70011;BME280;59543;37.950;-122.338;2023-04-26T00:45:08;101096.31;;;18.60;53.96
70011;BME280;59543;37.950;-122.338;2023-04-26T00:47:34;101108.50;;;18.79;54.74
70011;BME280;59543;37.950;-122.338;2023-04-26T00:50:01;101109.16;;;18.45;54.54
70011;BME280;59543;37.950;-122.338;2023-04-26T00:52:29;101107.28;;;18.31;55.02
70011;BME280;59543;37.950;-122.338;2023-04-26T00:54:55;101104.75;;;18.29;53.88
70011;BME280;59543;37.950;-122.338;2023-04-26T00:57:22;101103.47;;;18.10;55.53
70011;BME280;59543;37.950;-122.338;2023-04-26T00:59:49;101106.75;;;18.20;55.18
70011;BME280;59543;37.950;-122.338;2023-04-26T01:02:15;101108.53;;;18.13;55.97
70011;BME280;59543;37.950;-122.338;2023-04-26T01:04:42;101107.53;;;17.85;56.05
70011;BME280;59543;37.950;-122.338;2023-04-26T01:07:09;101107.91;;;17.81;56.30
70011;BME280;59543;37.950;-122.338;2023-04-26T01:09:39;101117.22;;;17.49;56.21
70011;BME280;59543;37.950;-122.338;2023-04-26T01:12:06;101112.09;;;17.54;56.02
70011;BME280;59543;37.950;-122.338;2023-04-26T01:14:33;101113.66;;;17.49;57.23
70011;BME280;59543;37.950;-122.338;2023-04-26T01:17:02;101111.34;;;17.75;56.81
70011;BME280;59543;37.950;-122.338;2023-04-26T01:19:29;101109.63;;;17.59;57.16
70011;BME280;59543;37.950;-122.338;2023-04-26T01:21:57;101108.38;;;17.32;57.77
70011;BME280;59543;37.950;-122.338;2023-04-26T01:24:23;101104.53;;;17.42;57.76
70011;BME280;59543;37.950;-122.338;2023-04-26T01:26:49;101119.75;;;17.36;58.61
70011;BME280;59543;37.950;-122.338;2023-04-26T01:29:20;101113.16;;;17.30;58.55
70011;BME280;59543;37.950;-122.338;2023-04-26T01:31:48;101118.25;;;17.33;57.97
70011;BME280;59543;37.950;-122.338;2023-04-26T01:34:15;101114.38;;;17.28;58.23
70011;BME280;59543;37.950;-122.338;2023-04-26T01:36:41;101103.19;;;17.23;57.86
70011;BME280;59543;37.950;-122.338;2023-04-26T01:39:07;101120.97;;;17.10;58.11
70011;BME280;59543;37.950;-122.338;2023-04-26T01:41:34;101123.56;;;16.81;59.09
70011;BME280;59543;37.950;-122.338;2023-04-26T01:44:00;101119.31;;;16.55;60.05
70011;BME280;59543;37.950;-122.338;2023-04-26T01:46:26;101121.22;;;16.46;60.53
70011;BME280;59543;37.950;-122.338;2023-04-26T01:48:53;101123.59;;;16.50;60.47
70011;BME280;59543;37.950;-122.338;2023-04-26T01:51:19;101125.16;;;16.36;61.04
70011;BME280;59543;37.950;-122.338;2023-04-26T01:53:46;101134.94;;;16.14;61.17
70011;BME280;59543;37.950;-122.338;2023-04-26T01:56:12;101127.50;;;16.16;61.96
70011;BME280;59543;37.950;-122.338;2023-04-26T01:58:38;101134.63;;;16.09;62.96
70011;BME280;59543;37.950;-122.338;2023-04-26T02:01:08;101126.06;;;15.89;63.21
70011;BME280;59543;37.950;-122.338;2023-04-26T02:03:34;101135.53;;;16.01;63.48
70011;BME280;59543;37.950;-122.338;2023-04-26T02:06:01;101138.13;;;15.78;64.32
70011;BME280;59543;37.950;-122.338;2023-04-26T02:08:28;101146.78;;;15.57;65.03
70011;BME280;59543;37.950;-122.338;2023-04-26T02:10:54;101145.59;;;15.43;65.73
70011;BME280;59543;37.950;-122.338;2023-04-26T02:13:21;101156.97;;;15.22;66.66
70011;BME280;59543;37.950;-122.338;2023-04-26T02:15:48;101150.69;;;15.22;67.21
70011;BME280;59543;37.950;-122.338;2023-04-26T02:18:15;101157.81;;;14.98;68.35
70011;BME280;59543;37.950;-122.338;2023-04-26T02:20:43;101154.03;;;14.83;68.52
70011;BME280;59543;37.950;-122.338;2023-04-26T02:23:11;101157.75;;;14.66;69.32
70011;BME280;59543;37.950;-122.338;2023-04-26T02:25:37;101160.75;;;14.54;69.63
70011;BME280;59543;37.950;-122.338;2023-04-26T02:28:04;101170.25;;;14.24;70.95
70011;BME280;59543;37.950;-122.338;2023-04-26T02:30:31;101165.78;;;14.07;71.74
70011;BME280;59543;37.950;-122.338;2023-04-26T02:32:57;101168.88;;;13.86;72.55
70011;BME280;59543;37.950;-122.338;2023-04-26T02:35:24;101165.19;;;13.95;72.50
70011;BME280;59543;37.950;-122.338;2023-04-26T02:37:50;101164.91;;;13.72;72.96
70011;BME280;59543;37.950;-122.338;2023-04-26T02:40:18;101171.34;;;13.53;73.68
70011;BME280;59543;37.950;-122.338;2023-04-26T02:42:44;101165.75;;;13.72;73.00
70011;BME280;59543;37.950;-122.338;2023-04-26T02:45:10;101172.13;;;13.63;73.20
70011;BME280;59543;37.950;-122.338;2023-04-26T02:47:37;101166.69;;;13.37;74.03
70011;BME280;59543;37.950;-122.338;2023-04-26T02:50:07;101175.47;;;13.21;74.89
70011;BME280;59543;37.950;-122.338;2023-04-26T02:52:35;101164.91;;;13.28;74.59
70011;BME280;59543;37.950;-122.338;2023-04-26T02:55:04;101171.03;;;13.30;74.76
70011;BME280;59543;37.950;-122.338;2023-04-26T02:57:31;101179.03;;;13.22;74.93
70011;BME280;59543;37.950;-122.338;2023-04-26T02:59:58;101182.34;;;13.16;75.01
70011;BME280;59543;37.950;-122.338;2023-04-26T03:02:24;101177.72;;;13.08;75.63
70011;BME280;59543;37.950;-122.338;2023-04-26T03:04:51;101189.75;;;12.96;76.56
70011;BME280;59543;37.950;-122.338;2023-04-26T03:07:17;101185.19;;;12.96;76.38
70011;BME280;59543;37.950;-122.338;2023-04-26T03:09:43;101197.22;;;12.84;76.57
70011;BME280;59543;37.950;-122.338;2023-04-26T03:12:10;101184.97;;;12.90;76.33
70011;BME280;59543;37.950;-122.338;2023-04-26T03:14:36;101192.63;;;12.94;76.48
70011;BME280;59543;37.950;-122.338;2023-04-26T03:17:03;101191.59;;;12.77;77.31
70011;BME280;59543;37.950;-122.338;2023-04-26T03:19:29;101195.06;;;12.70;77.85
70011;BME280;59543;37.950;-122.338;2023-04-26T03:21:55;101201.19;;;12.62;78.76
70011;BME280;59543;37.950;-122.338;2023-04-26T03:24:22;101201.34;;;12.33;80.04
70011;BME280;59543;37.950;-122.338;2023-04-26T03:26:48;101201.22;;;12.34;80.15
70011;BME280;59543;37.950;-122.338;2023-04-26T03:29:15;101197.59;;;12.16;81.01
70011;BME280;59543;37.950;-122.338;2023-04-26T03:31:42;101200.97;;;12.18;81.44
70011;BME280;59543;37.950;-122.338;2023-04-26T03:34:08;101204.31;;;12.02;81.92
70011;BME280;59543;37.950;-122.338;2023-04-26T03:36:34;101206.00;;;12.03;82.08
70011;BME280;59543;37.950;-122.338;2023-04-26T03:39:00;101209.97;;;12.09;81.87
70011;BME280;59543;37.950;-122.338;2023-04-26T03:41:27;101208.47;;;11.87;82.92
70011;BME280;59543;37.950;-122.338;2023-04-26T03:43:53;101210.47;;;11.85;83.36
70011;BME280;59543;37.950;-122.338;2023-04-26T03:46:19;101212.56;;;11.91;83.27
70011;BME280;59543;37.950;-122.338;2023-04-26T03:48:45;101217.00;;;11.92;82.93
70011;BME280;59543;37.950;-122.338;2023-04-26T03:51:11;101221.97;;;11.87;82.96
70011;BME280;59543;37.950;-122.338;2023-04-26T03:53:38;101221.38;;;11.83;83.59
70011;BME280;59543;37.950;-122.338;2023-04-26T03:56:04;101231.88;;;11.67;83.70
70011;BME280;59543;37.950;-122.338;2023-04-26T03:58:31;101237.00;;;11.60;84.59
70011;BME280;59543;37.950;-122.338;2023-04-26T04:00:58;101226.06;;;11.72;84.25
70011;BME280;59543;37.950;-122.338;2023-04-26T04:03:24;101231.50;;;11.52;85.22
70011;BME280;59543;37.950;-122.338;2023-04-26T04:05:50;101246.09;;;11.59;84.71
70011;BME280;59543;37.950;-122.338;2023-04-26T04:08:17;101239.16;;;11.47;85.70
70011;BME280;59543;37.950;-122.338;2023-04-26T04:10:44;101240.13;;;11.46;85.58
70011;BME280;59543;37.950;-122.338;2023-04-26T04:13:10;101236.00;;;11.52;85.03
70011;BME280;59543;37.950;-122.338;2023-04-26T04:15:36;101248.91;;;11.58;85.49
70011;BME280;59543;37.950;-122.338;2023-04-26T04:18:03;101249.63;;;11.60;85.01
70011;BME280;59543;37.950;-122.338;2023-04-26T04:20:29;101250.34;;;11.62;84.73
70011;BME280;59543;37.950;-122.338;2023-04-26T04:22:55;101249.34;;;11.53;85.45
70011;BME280;59543;37.950;-122.338;2023-04-26T04:25:23;101252.91;;;11.44;85.89
70011;BME280;59543;37.950;-122.338;2023-04-26T04:27:50;101252.63;;;11.57;85.22
70011;BME280;59543;37.950;-122.338;2023-04-26T04:30:18;101255.19;;;11.58;84.92
70011;BME280;59543;37.950;-122.338;2023-04-26T04:32:44;101258.28;;;11.44;85.63
70011;BME280;59543;37.950;-122.338;2023-04-26T04:35:11;101251.06;;;11.44;85.66
70011;BME280;59543;37.950;-122.338;2023-04-26T04:37:38;101259.88;;;11.47;85.39
70011;BME280;59543;37.950;-122.338;2023-04-26T04:40:05;101266.94;;;11.38;86.10
70011;BME280;59543;37.950;-122.338;2023-04-26T04:42:34;101251.03;;;11.25;86.02
70011;BME280;59543;37.950;-122.338;2023-04-26T04:45:00;101262.97;;;11.32;86.50
70011;BME280;59543;37.950;-122.338;2023-04-26T04:47:27;101263.53;;;11.36;86.92
70011;BME280;59543;37.950;-122.338;2023-04-26T04:49:53;101259.56;;;11.30;86.80
70011;BME280;59543;37.950;-122.338;2023-04-26T04:52:19;101270.88;;;11.34;86.73
70011;BME280;59543;37.950;-122.338;2023-04-26T04:54:46;101263.97;;;11.51;85.96
70011;BME280;59543;37.950;-122.338;2023-04-26T04:57:13;101261.56;;;11.38;86.50
70011;BME280;59543;37.950;-122.338;2023-04-26T04:59:41;101265.38;;;11.26;87.28
70011;BME280;59543;37.950;-122.338;2023-04-26T05:02:08;101272.75;;;11.24;87.56
70011;BME280;59543;37.950;-122.338;2023-04-26T05:04:34;101271.63;;;11.26;87.20
70011;BME280;59543;37.950;-122.338;2023-04-26T05:07:00;101276.84;;;11.28;87.48
70011;BME280;59543;37.950;-122.338;2023-04-26T05:09:26;101279.41;;;11.19;87.41
70011;BME280;59543;37.950;-122.338;2023-04-26T05:11:53;101275.56;;;11.12;87.46
70011;BME280;59543;37.950;-122.338;2023-04-26T05:14:19;101272.47;;;11.17;87.22
70011;BME280;59543;37.950;-122.338;2023-04-26T05:16:45;101267.19;;;11.25;86.25
70011;BME280;59543;37.950;-122.338;2023-04-26T05:19:11;101262.13;;;11.32;86.00
70011;BME280;59543;37.950;-122.338;2023-04-26T05:21:38;101270.63;;;11.27;86.00
70011;BME280;59543;37.950;-122.338;2023-04-26T05:24:04;101267.78;;;11.29;85.86
70011;BME280;59543;37.950;-122.338;2023-04-26T05:26:30;101275.03;;;11.28;85.78
70011;BME280;59543;37.950;-122.338;2023-04-26T05:28:57;101270.06;;;11.33;85.52
70011;BME280;59543;37.950;-122.338;2023-04-26T05:31:23;101270.63;;;11.27;85.77
70011;BME280;59543;37.950;-122.338;2023-04-26T05:33:49;101282.94;;;11.20;86.52
70011;BME280;59543;37.950;-122.338;2023-04-26T05:36:16;101283.34;;;11.25;86.01
70011;BME280;59543;37.950;-122.338;2023-04-26T05:38:42;101281.94;;;11.21;86.38
70011;BME280;59543;37.950;-122.338;2023-04-26T05:41:08;101283.63;;;11.22;86.06
70011;BME280;59543;37.950;-122.338;2023-04-26T05:43:34;101287.03;;;11.14;86.92
70011;BME280;59543;37.950;-122.338;2023-04-26T05:46:00;101273.75;;;11.23;86.20
70011;BME280;59543;37.950;-122.338;2023-04-26T05:48:27;101277.84;;;11.27;85.36
70011;BME280;59543;37.950;-122.338;2023-04-26T05:50:54;101282.22;;;11.28;86.20
70011;BME280;59543;37.950;-122.338;2023-04-26T05:53:20;101284.06;;;11.17;87.15
70011;BME280;59543;37.950;-122.338;2023-04-26T05:55:47;101286.19;;;11.14;87.00
70011;BME280;59543;37.950;-122.338;2023-04-26T05:58:13;101295.84;;;11.16;86.93
70011;BME280;59543;37.950;-122.338;2023-04-26T06:00:39;101297.53;;;11.08;87.12
70011;BME280;59543;37.950;-122.338;2023-04-26T06:03:06;101299.94;;;11.20;87.05
70011;BME280;59543;37.950;-122.338;2023-04-26T06:05:32;101297.81;;;11.05;87.55
70011;BME280;59543;37.950;-122.338;2023-04-26T06:07:59;101302.75;;;10.99;87.91
70011;BME280;59543;37.950;-122.338;2023-04-26T06:10:26;101305.59;;;11.08;87.72
70011;BME280;59543;37.950;-122.338;2023-04-26T06:12:52;101308.25;;;10.98;88.33
70011;BME280;59543;37.950;-122.338;2023-04-26T06:15:18;101301.75;;;11.01;88.49
70011;BME280;59543;37.950;-122.338;2023-04-26T06:17:45;101304.13;;;10.94;89.25
70011;BME280;59543;37.950;-122.338;2023-04-26T06:20:11;101304.03;;;11.05;88.35
70011;BME280;59543;37.950;-122.338;2023-04-26T06:22:37;101308.25;;;10.98;88.34
70011;BME280;59543;37.950;-122.338;2023-04-26T06:25:04;101302.63;;;11.01;88.70
70011;BME280;59543;37.950;-122.338;2023-04-26T06:27:31;101294.34;;;10.83;89.95
70011;BME280;59543;37.950;-122.338;2023-04-26T06:29:57;101303.56;;;10.90;90.04
70011;BME280;59543;37.950;-122.338;2023-04-26T06:32:23;101306.53;;;10.87;89.93
70011;BME280;59543;37.950;-122.338;2023-04-26T06:34:50;101292.59;;;10.72;90.04
70011;BME280;59543;37.950;-122.338;2023-04-26T06:37:16;101298.53;;;10.66;90.81
70011;BME280;59543;37.950;-122.338;2023-04-26T06:39:42;101301.56;;;10.83;90.23
70011;BME280;59543;37.950;-122.338;2023-04-26T06:42:08;101299.75;;;10.83;89.87
70011;BME280;59543;37.950;-122.338;2023-04-26T06:44:36;101303.09;;;10.75;90.39
70011;BME280;59543;37.950;-122.338;2023-04-26T06:47:02;101302.66;;;10.70;91.33
70011;BME280;59543;37.950;-122.338;2023-04-26T06:49:28;101290.91;;;10.71;91.19
70011;BME280;59543;37.950;-122.338;2023-04-26T06:51:54;101300.41;;;10.75;90.43
70011;BME280;59543;37.950;-122.338;2023-04-26T06:54:21;101298.56;;;10.76;90.15
70011;BME280;59543;37.950;-122.338;2023-04-26T06:56:47;101290.63;;;10.74;90.06
70011;BME280;59543;37.950;-122.338;2023-04-26T06:59:13;101299.41;;;10.76;90.62
70011;BME280;59543;37.950;-122.338;2023-04-26T07:01:39;101300.31;;;10.87;90.07
70011;BME280;59543;37.950;-122.338;2023-04-26T07:04:05;101298.16;;;10.81;89.86
70011;BME280;59543;37.950;-122.338;2023-04-26T07:06:34;101296.88;;;10.75;90.37
70011;BME280;59543;37.950;-122.338;2023-04-26T07:09:00;101292.59;;;10.72;90.24
70011;BME280;59543;37.950;-122.338;2023-04-26T07:11:30;101305.06;;;10.73;90.81
70011;BME280;59543;37.950;-122.338;2023-04-26T07:13:56;101312.88;;;10.76;90.47
70011;BME280;59543;37.950;-122.338;2023-04-26T07:16:23;101306.25;;;10.81;90.25
70011;BME280;59543;37.950;-122.338;2023-04-26T07:18:49;101303.00;;;10.87;89.79
70011;BME280;59543;37.950;-122.338;2023-04-26T07:21:17;101303.66;;;10.79;90.06
70011;BME280;59543;37.950;-122.338;2023-04-26T07:23:44;101298.84;;;10.83;89.77
70011;BME280;59543;37.950;-122.338;2023-04-26T07:26:10;101303.69;;;10.89;89.68
70011;BME280;59543;37.950;-122.338;2023-04-26T07:28:37;101308.41;;;10.96;89.40
70011;BME280;59543;37.950;-122.338;2023-04-26T07:31:03;101302.28;;;10.85;89.30
70011;BME280;59543;37.950;-122.338;2023-04-26T07:33:29;101302.53;;;10.72;90.73
70011;BME280;59543;37.950;-122.338;2023-04-26T07:35:57;101304.09;;;10.74;90.69
70011;BME280;59543;37.950;-122.338;2023-04-26T07:38:26;101305.06;;;10.73;90.45
70011;BME280;59543;37.950;-122.338;2023-04-26T07:40:52;101310.44;;;10.73;90.76
70011;BME280;59543;37.950;-122.338;2023-04-26T07:43:19;101310.44;;;10.73;90.48
70011;BME280;59543;37.950;-122.338;2023-04-26T07:45:46;101305.59;;;10.67;91.14
70011;BME280;59543;37.950;-122.338;2023-04-26T07:48:12;101296.13;;;10.63;90.97
70011;BME280;59543;37.950;-122.338;2023-04-26T07:50:38;101298.94;;;10.62;91.80
70011;BME280;59543;37.950;-122.338;2023-04-26T07:53:04;101308.00;;;10.61;91.72
70011;BME280;59543;37.950;-122.338;2023-04-26T07:55:31;101304.31;;;10.62;91.50
70011;BME280;59543;37.950;-122.338;2023-04-26T07:57:57;101300.94;;;10.69;91.73
70011;BME280;59543;37.950;-122.338;2023-04-26T08:00:23;101298.81;;;10.63;92.10
70011;BME280;59543;37.950;-122.338;2023-04-26T08:02:50;101294.81;;;10.58;92.18
70011;BME280;59543;37.950;-122.338;2023-04-26T08:05:16;101298.63;;;10.55;92.20
70011;BME280;59543;37.950;-122.338;2023-04-26T08:07:42;101301.84;;;10.49;92.35
70011;BME280;59543;37.950;-122.338;2023-04-26T08:10:09;101296.09;;;10.53;92.69
70011;BME280;59543;37.950;-122.338;2023-04-26T08:12:36;101299.91;;;10.51;93.50
70011;BME280;59543;37.950;-122.338;2023-04-26T08:15:04;101301.75;;;10.50;92.72
70011;BME280;59543;37.950;-122.338;2023-04-26T08:17:31;101310.47;;;10.43;93.45
70011;BME280;59543;37.950;-122.338;2023-04-26T08:19:58;101302.97;;;10.46;93.29
70011;BME280;59543;37.950;-122.338;2023-04-26T08:22:24;101303.13;;;10.45;93.43
70011;BME280;59543;37.950;-122.338;2023-04-26T08:24:54;101303.97;;;10.45;93.57
70011;BME280;59543;37.950;-122.338;2023-04-26T08:27:21;101300.81;;;10.40;93.50
70011;BME280;59543;37.950;-122.338;2023-04-26T08:29:47;101299.25;;;10.38;94.14
70011;BME280;59543;37.950;-122.338;2023-04-26T08:32:13;101298.00;;;10.42;94.02
70011;BME280;59543;37.950;-122.338;2023-04-26T08:34:40;101309.56;;;10.33;95.26
70011;BME280;59543;37.950;-122.338;2023-04-26T08:37:06;101304.53;;;10.49;94.18
70011;BME280;59543;37.950;-122.338;2023-04-26T08:39:33;101309.81;;;10.50;93.44
70011;BME280;59543;37.950;-122.338;2023-04-26T08:42:16;101300.44;;;10.45;94.02
70011;BME280;59543;37.950;-122.338;2023-04-26T08:44:44;101299.50;;;10.35;94.58
70011;BME280;59543;37.950;-122.338;2023-04-26T08:47:30;101304.03;;;10.34;95.08
70011;BME280;59543;37.950;-122.338;2023-04-26T08:50:00;101303.75;;;10.27;95.11
70011;BME280;59543;37.950;-122.338;2023-04-26T08:52:30;101299.78;;;10.32;95.18
70011;BME280;59543;37.950;-122.338;2023-04-26T08:54:57;101304.63;;;10.38;94.96
70011;BME280;59543;37.950;-122.338;2023-04-26T08:57:24;101297.16;;;10.20;95.71
70011;BME280;59543;37.950;-122.338;2023-04-26T08:59:51;101299.84;;;10.20;96.02
70011;BME280;59543;37.950;-122.338;2023-04-26T09:02:20;101295.91;;;10.24;95.65
70011;BME280;59543;37.950;-122.338;2023-04-26T09:04:48;101293.16;;;10.15;95.80
70011;BME280;59543;37.950;-122.338;2023-04-26T09:07:22;101296.28;;;10.20;95.62
70011;BME280;59543;37.950;-122.338;2023-04-26T09:09:53;101292.75;;;10.19;95.02
70011;BME280;59543;37.950;-122.338;2023-04-26T09:12:22;101295.88;;;10.36;94.42
70011;BME280;59543;37.950;-122.338;2023-04-26T09:14:48;101287.72;;;10.26;95.47
70011;BME280;59543;37.950;-122.338;2023-04-26T09:17:31;101282.34;;;10.26;95.17
70011;BME280;59543;37.950;-122.338;2023-04-26T09:20:00;101282.84;;;10.20;95.77
70011;BME280;59543;37.950;-122.338;2023-04-26T09:22:36;101285.38;;;10.12;96.18
70011;BME280;59543;37.950;-122.338;2023-04-26T09:25:04;101285.94;;;10.15;97.01
70011;BME280;59543;37.950;-122.338;2023-04-26T09:27:37;101287.66;;;10.16;96.62
70011;BME280;59543;37.950;-122.338;2023-04-26T09:30:07;101292.31;;;10.14;96.93
70011;BME280;59543;37.950;-122.338;2023-04-26T09:35:41;101290.69;;;10.23;96.24
70011;BME280;59543;37.950;-122.338;2023-04-26T09:38:17;101284.84;;;10.18;96.50
70011;BME280;59543;37.950;-122.338;2023-04-26T09:40:48;101279.19;;;10.21;96.48
70011;BME280;59543;37.950;-122.338;2023-04-26T09:43:16;101279.41;;;10.08;96.66
70011;BME280;59543;37.950;-122.338;2023-04-26T09:45:51;101283.59;;;10.01;97.37
70011;BME280;59543;37.950;-122.338;2023-04-26T09:48:19;101285.50;;;10.10;97.16
70011;BME280;59543;37.950;-122.338;2023-04-26T09:50:52;101286.47;;;10.09;96.75
70011;BME280;59543;37.950;-122.338;2023-04-26T09:55:57;101287.75;;;10.05;96.76
70011;BME280;59543;37.950;-122.338;2023-04-26T09:58:31;101281.75;;;10.01;96.93
70011;BME280;59543;37.950;-122.338;2023-04-26T10:00:58;101293.38;;;10.02;96.91
70011;BME280;59543;37.950;-122.338;2023-04-26T10:03:24;101290.97;;;9.99;97.01
70011;BME280;59543;37.950;-122.338;2023-04-26T10:05:52;101285.94;;;10.15;96.63
70011;BME280;59543;37.950;-122.338;2023-04-26T10:08:18;101284.69;;;10.19;96.38
70011;BME280;59543;37.950;-122.338;2023-04-26T10:10:46;101281.16;;;10.19;97.27
70011;BME280;59543;37.950;-122.338;2023-04-26T10:13:14;101287.00;;;10.24;96.85
70011;BME280;59543;37.950;-122.338;2023-04-26T10:15:41;101286.78;;;10.16;97.18
70011;BME280;59543;37.950;-122.338;2023-04-26T10:18:08;101286.53;;;10.19;97.60
70011;BME280;59543;37.950;-122.338;2023-04-26T10:20:39;101289.38;;;10.17;98.22
70011;BME280;59543;37.950;-122.338;2023-04-26T10:23:15;101283.06;;;10.07;98.75
70011;BME280;59543;37.950;-122.338;2023-04-26T10:25:44;101281.63;;;10.24;98.22
70011;BME280;59543;37.950;-122.338;2023-04-26T10:28:11;101279.72;;;10.15;98.51
70011;BME280;59543;37.950;-122.338;2023-04-26T10:31:03;101285.41;;;10.21;98.22
70011;BME280;59543;37.950;-122.338;2023-04-26T10:33:31;101289.69;;;10.24;98.32
70011;BME280;59543;37.950;-122.338;2023-04-26T10:38:26;101282.69;;;10.33;98.39
70011;BME280;59543;37.950;-122.338;2023-04-26T10:40:52;101276.03;;;10.37;97.48
70011;BME280;59543;37.950;-122.338;2023-04-26T10:45:45;101278.88;;;10.35;97.94
70011;BME280;59543;37.950;-122.338;2023-04-26T10:48:28;101280.63;;;10.25;98.03
70011;BME280;59543;37.950;-122.338;2023-04-26T10:53:30;101281.84;;;10.32;98.09
70011;BME280;59543;37.950;-122.338;2023-04-26T10:55:57;101280.41;;;10.38;98.38
70011;BME280;59543;37.950;-122.338;2023-04-26T10:58:39;101282.19;;;10.48;97.15
70011;BME280;59543;37.950;-122.338;2023-04-26T11:01:08;101279.47;;;10.39;97.54
70011;BME280;59543;37.950;-122.338;2023-04-26T11:03:36;101282.16;;;10.39;97.35
70011;BME280;59543;37.950;-122.338;2023-04-26T11:06:07;101293.44;;;10.33;97.63
70011;BME280;59543;37.950;-122.338;2023-04-26T11:08:34;101279.31;;;10.40;96.91
70011;BME280;59543;37.950;-122.338;2023-04-26T11:13:41;101289.28;;;10.28;96.92
70011;BME280;59543;37.950;-122.338;2023-04-26T11:16:12;101287.53;;;10.18;97.26
70011;BME280;59543;37.950;-122.338;2023-04-26T11:18:44;101299.44;;;10.25;97.39
70011;BME280;59543;37.950;-122.338;2023-04-26T11:21:11;101298.00;;;10.21;96.81
70011;BME280;59543;37.950;-122.338;2023-04-26T11:23:42;101297.25;;;10.30;96.46
70011;BME280;59543;37.950;-122.338;2023-04-26T11:26:08;101288.84;;;10.23;95.76
70011;BME280;59543;37.950;-122.338;2023-04-26T11:28:36;101302.41;;;10.22;96.26
70011;BME280;59543;37.950;-122.338;2023-04-26T11:31:03;101298.50;;;10.05;96.68
70011;BME280;59543;37.950;-122.338;2023-04-26T11:33:30;101290.88;;;10.10;96.15
70011;BME280;59543;37.950;-122.338;2023-04-26T11:35:59;101292.84;;;10.08;96.66
70011;BME280;59543;37.950;-122.338;2023-04-26T11:38:27;101294.41;;;10.11;97.13
70011;BME280;59543;37.950;-122.338;2023-04-26T11:41:00;101297.16;;;10.20;96.73
70011;BME280;59543;37.950;-122.338;2023-04-26T11:45:58;101294.28;;;10.12;97.30
70011;BME280;59543;37.950;-122.338;2023-04-26T11:48:27;101288.19;;;10.10;96.81
70011;BME280;59543;37.950;-122.338;2023-04-26T11:50:55;101288.31;;;10.08;97.07
70011;BME280;59543;37.950;-122.338;2023-04-26T11:53:23;101292.13;;;10.06;97.63
70011;BME280;59543;37.950;-122.338;2023-04-26T11:55:51;101295.00;;;10.14;97.06
70011;BME280;59543;37.950;-122.338;2023-04-26T11:58:17;101290.78;;;10.21;96.72
70011;BME280;59543;37.950;-122.338;2023-04-26T12:00:59;101289.75;;;10.13;97.46
70011;BME280;59543;37.950;-122.338;2023-04-26T12:03:33;101300.56;;;10.22;97.76
70011;BME280;59543;37.950;-122.338;2023-04-26T12:06:05;101297.69;;;10.14;97.58
70011;BME280;59543;37.950;-122.338;2023-04-26T12:08:32;101303.91;;;10.15;97.91
70011;BME280;59543;37.950;-122.338;2023-04-26T12:11:00;101295.00;;;10.14;98.22
70011;BME280;59543;37.950;-122.338;2023-04-26T12:13:28;101300.78;;;10.10;98.25
70011;BME280;59543;37.950;-122.338;2023-04-26T12:15:54;101298.41;;;10.16;97.84
70011;BME280;59543;37.950;-122.338;2023-04-26T12:18:21;101286.78;;;10.16;98.33
70011;BME280;59543;37.950;-122.338;2023-04-26T12:20:48;101297.75;;;10.24;97.60
70011;BME280;59543;37.950;-122.338;2023-04-26T12:23:16;101300.13;;;10.17;97.26
70011;BME280;59543;37.950;-122.338;2023-04-26T12:25:55;101295.66;;;10.06;97.66
70011;BME280;59543;37.950;-122.338;2023-04-26T12:28:25;101295.81;;;10.05;96.93
70011;BME280;59543;37.950;-122.338;2023-04-26T12:30:51;101299.91;;;10.09;97.68
70011;BME280;59543;37.950;-122.338;2023-04-26T12:33:17;101303.47;;;10.10;98.28
70011;BME280;59543;37.950;-122.338;2023-04-26T12:35:48;101307.78;;;10.01;98.82
70011;BME280;59543;37.950;-122.338;2023-04-26T12:38:15;101306.34;;;10.18;98.43
70011;BME280;59543;37.950;-122.338;2023-04-26T12:40:41;101304.56;;;10.07;98.46